sensor_id;sensor_type;location;lat;lon;timestamp;P1;durP1;ratioP1;P2;durP2;ratioP2
3249;SDS011;1637;42.020;23.992;2022-11-18T00:02:15;193.97;;;56.50;;
3249;SDS011;1637;42.020;23.992;2022-11-18T00:04:42;152.87;;;55.30;;
3249;SDS011;1637;42.020;23.992;2022-11-18T00:07:09;148.97;;;58.77;;
3249;SDS011;1637;42.020;23.992;2022-11-18T00:09:35;157.07;;;57.53;;
3249;SDS011;1637;42.020;23.992;2022-11-18T00:12:02;191.17;;;64.47;;
3249;SDS011;1637;42.020;23.992;2022-11-18T00:14:47;155.40;;;61.10;;
3249;SDS011;1637;42.020;23.992;2022-11-18T00:17:15;179.20;;;62.57;;
3249;SDS011;1637;42.020;23.992;2022-11-18T00:19:42;173.73;;;63.17;;
3249;SDS011;1637;42.020;23.992;2022-11-18T00:22:10;182.07;;;59.00;;
3249;SDS011;1637;42.020;23.992;2022-11-18T00:24:38;173.20;;;49.50;;
3249;SDS011;1637;42.020;23.992;2022-11-18T00:27:05;131.87;;;46.10;;
3249;SDS011;1637;42.020;23.992;2022-11-18T00:29:32;200.17;;;48.07;;
3249;SDS011;1637;42.020;23.992;2022-11-18T00:31:59;167.77;;;50.63;;
3249;SDS011;1637;42.020;23.992;2022-11-18T00:34:27;203.13;;;52.00;;
3249;SDS011;1637;42.020;23.992;2022-11-18T00:36:54;167.27;;;52.87;;
3249;SDS011;1637;42.020;23.992;2022-11-18T00:39:20;181.47;;;56.60;;
3249;SDS011;1637;42.020;23.992;2022-11-18T00:41:47;140.50;;;52.40;;
3249;SDS011;1637;42.020;23.992;2022-11-18T00:44:32;142.57;;;49.73;;
3249;SDS011;1637;42.020;23.992;2022-11-18T00:46:59;139.67;;;43.80;;
3249;SDS011;1637;42.020;23.992;2022-11-18T00:49:27;95.77;;;35.57;;
3249;SDS011;1637;42.020;23.992;2022-11-18T00:51:54;112.33;;;39.80;;
3249;SDS011;1637;42.020;23.992;2022-11-18T00:54:21;108.40;;;41.03;;
3249;SDS011;1637;42.020;23.992;2022-11-18T00:56:48;111.07;;;38.50;;
3249;SDS011;1637;42.020;23.992;2022-11-18T00:59:15;111.27;;;38.87;;
3249;SDS011;1637;42.020;23.992;2022-11-18T01:01:41;100.43;;;29.37;;
3249;SDS011;1637;42.020;23.992;2022-11-18T01:04:08;75.47;;;28.77;;
3249;SDS011;1637;42.020;23.992;2022-11-18T01:06:37;112.07;;;31.47;;
3249;SDS011;1637;42.020;23.992;2022-11-18T01:09:03;84.17;;;28.83;;
3249;SDS011;1637;42.020;23.992;2022-11-18T01:11:30;114.63;;;39.87;;
3249;SDS011;1637;42.020;23.992;2022-11-18T01:14:14;95.43;;;36.60;;
3249;SDS011;1637;42.020;23.992;2022-11-18T01:16:41;138.10;;;44.90;;
3249;SDS011;1637;42.020;23.992;2022-11-18T01:19:08;112.30;;;41.53;;
3249;SDS011;1637;42.020;23.992;2022-11-18T01:21:36;136.30;;;41.80;;
3249;SDS011;1637;42.020;23.992;2022-11-18T01:24:04;131.60;;;43.27;;
3249;SDS011;1637;42.020;23.992;2022-11-18T01:26:31;175.57;;;48.30;;
3249;SDS011;1637;42.020;23.992;2022-11-18T01:28:58;122.40;;;44.17;;
3249;SDS011;1637;42.020;23.992;2022-11-18T01:31:25;109.67;;;41.60;;
3249;SDS011;1637;42.020;23.992;2022-11-18T01:33:51;99.73;;;43.23;;
3249;SDS011;1637;42.020;23.992;2022-11-18T01:36:19;108.17;;;41.70;;
3249;SDS011;1637;42.020;23.992;2022-11-18T01:38:49;140.93;;;50.50;;
3249;SDS011;1637;42.020;23.992;2022-11-18T01:41:17;141.90;;;45.50;;
3249;SDS011;1637;42.020;23.992;2022-11-18T01:43:46;126.43;;;43.77;;
3249;SDS011;1637;42.020;23.992;2022-11-18T01:46:16;202.40;;;45.27;;
3249;SDS011;1637;42.020;23.992;2022-11-18T01:48:43;83.60;;;27.30;;
3249;SDS011;1637;42.020;23.992;2022-11-18T01:51:14;116.97;;;35.37;;
3249;SDS011;1637;42.020;23.992;2022-11-18T01:53:44;134.10;;;39.87;;
3249;SDS011;1637;42.020;23.992;2022-11-18T01:56:17;144.97;;;38.57;;
3249;SDS011;1637;42.020;23.992;2022-11-18T01:58:49;105.70;;;37.70;;
3249;SDS011;1637;42.020;23.992;2022-11-18T02:01:19;74.10;;;24.33;;
3249;SDS011;1637;42.020;23.992;2022-11-18T02:03:46;72.57;;;23.87;;
3249;SDS011;1637;42.020;23.992;2022-11-18T02:06:15;70.37;;;34.00;;
3249;SDS011;1637;42.020;23.992;2022-11-18T02:08:42;76.33;;;27.90;;
3249;SDS011;1637;42.020;23.992;2022-11-18T02:11:11;76.03;;;27.70;;
3249;SDS011;1637;42.020;23.992;2022-11-18T02:14:01;69.37;;;23.83;;
3249;SDS011;1637;42.020;23.992;2022-11-18T02:16:32;75.27;;;28.40;;
3249;SDS011;1637;42.020;23.992;2022-11-18T02:19:14;96.90;;;29.80;;
3249;SDS011;1637;42.020;23.992;2022-11-18T02:21:58;130.10;;;51.80;;
3249;SDS011;1637;42.020;23.992;2022-11-18T02:24:35;320.33;;;93.40;;
3249;SDS011;1637;42.020;23.992;2022-11-18T02:30:20;50.90;;;20.93;;
3249;SDS011;1637;42.020;23.992;2022-11-18T02:32:49;48.40;;;19.93;;
3249;SDS011;1637;42.020;23.992;2022-11-18T02:35:23;72.20;;;21.63;;
3249;SDS011;1637;42.020;23.992;2022-11-18T02:37:55;62.77;;;19.30;;
3249;SDS011;1637;42.020;23.992;2022-11-18T02:40:26;44.10;;;18.80;;
3249;SDS011;1637;42.020;23.992;2022-11-18T02:42:59;61.17;;;19.80;;
3249;SDS011;1637;42.020;23.992;2022-11-18T02:45:33;50.73;;;22.73;;
3249;SDS011;1637;42.020;23.992;2022-11-18T02:48:04;76.77;;;29.83;;
3249;SDS011;1637;42.020;23.992;2022-11-18T02:50:34;42.00;;;18.40;;
3249;SDS011;1637;42.020;23.992;2022-11-18T02:53:04;49.87;;;21.53;;
3249;SDS011;1637;42.020;23.992;2022-11-18T02:55:34;47.17;;;20.33;;
3249;SDS011;1637;42.020;23.992;2022-11-18T02:58:03;73.80;;;23.30;;
3249;SDS011;1637;42.020;23.992;2022-11-18T03:00:33;90.37;;;29.57;;
3249;SDS011;1637;42.020;23.992;2022-11-18T03:03:15;134.40;;;39.30;;
3249;SDS011;1637;42.020;23.992;2022-11-18T03:05:51;146.77;;;40.20;;
3249;SDS011;1637;42.020;23.992;2022-11-18T03:08:24;50.50;;;19.40;;
3249;SDS011;1637;42.020;23.992;2022-11-18T03:10:59;43.60;;;18.53;;
3249;SDS011;1637;42.020;23.992;2022-11-18T03:13:33;45.73;;;20.50;;
3249;SDS011;1637;42.020;23.992;2022-11-18T03:16:09;46.83;;;17.47;;
3249;SDS011;1637;42.020;23.992;2022-11-18T03:18:41;57.20;;;18.07;;
3249;SDS011;1637;42.020;23.992;2022-11-18T03:21:18;60.83;;;21.57;;
3249;SDS011;1637;42.020;23.992;2022-11-18T03:23:50;54.60;;;17.97;;
3249;SDS011;1637;42.020;23.992;2022-11-18T03:26:23;41.13;;;15.03;;
3249;SDS011;1637;42.020;23.992;2022-11-18T03:28:55;53.97;;;18.30;;
3249;SDS011;1637;42.020;23.992;2022-11-18T03:31:28;50.13;;;18.97;;
3249;SDS011;1637;42.020;23.992;2022-11-18T03:34:00;61.00;;;20.07;;
3249;SDS011;1637;42.020;23.992;2022-11-18T03:36:31;61.90;;;19.37;;
3249;SDS011;1637;42.020;23.992;2022-11-18T03:39:04;71.03;;;20.50;;
3249;SDS011;1637;42.020;23.992;2022-11-18T03:41:35;117.23;;;25.27;;
3249;SDS011;1637;42.020;23.992;2022-11-18T03:44:06;85.57;;;25.57;;
3249;SDS011;1637;42.020;23.992;2022-11-18T03:46:39;96.23;;;36.77;;
3249;SDS011;1637;42.020;23.992;2022-11-18T03:49:10;105.33;;;42.77;;
3249;SDS011;1637;42.020;23.992;2022-11-18T03:51:41;148.67;;;32.37;;
3249;SDS011;1637;42.020;23.992;2022-11-18T03:54:12;179.40;;;54.90;;
3249;SDS011;1637;42.020;23.992;2022-11-18T03:56:43;340.47;;;85.77;;
3249;SDS011;1637;42.020;23.992;2022-11-18T03:59:16;246.10;;;58.57;;
3249;SDS011;1637;42.020;23.992;2022-11-18T04:01:49;215.63;;;61.90;;
3249;SDS011;1637;42.020;23.992;2022-11-18T04:04:20;124.37;;;33.30;;
3249;SDS011;1637;42.020;23.992;2022-11-18T04:06:48;60.93;;;18.50;;
3249;SDS011;1637;42.020;23.992;2022-11-18T04:09:20;124.40;;;23.13;;
3249;SDS011;1637;42.020;23.992;2022-11-18T04:11:52;104.77;;;37.33;;
3249;SDS011;1637;42.020;23.992;2022-11-18T04:14:28;86.47;;;31.70;;
3249;SDS011;1637;42.020;23.992;2022-11-18T04:16:58;88.67;;;24.00;;
3249;SDS011;1637;42.020;23.992;2022-11-18T04:19:25;53.10;;;20.47;;
3249;SDS011;1637;42.020;23.992;2022-11-18T04:21:53;68.70;;;24.77;;
3249;SDS011;1637;42.020;23.992;2022-11-18T04:24:20;47.30;;;17.60;;
3249;SDS011;1637;42.020;23.992;2022-11-18T04:26:46;78.67;;;21.07;;
3249;SDS011;1637;42.020;23.992;2022-11-18T04:29:13;54.60;;;16.33;;
3249;SDS011;1637;42.020;23.992;2022-11-18T04:31:40;41.87;;;15.73;;
3249;SDS011;1637;42.020;23.992;2022-11-18T04:34:08;50.10;;;17.67;;
3249;SDS011;1637;42.020;23.992;2022-11-18T04:36:35;52.50;;;20.17;;
3249;SDS011;1637;42.020;23.992;2022-11-18T04:39:02;72.20;;;27.00;;
3249;SDS011;1637;42.020;23.992;2022-11-18T04:41:29;77.83;;;29.87;;
3249;SDS011;1637;42.020;23.992;2022-11-18T04:44:13;50.73;;;14.77;;
3249;SDS011;1637;42.020;23.992;2022-11-18T04:46:40;35.60;;;16.10;;
3249;SDS011;1637;42.020;23.992;2022-11-18T04:49:08;36.83;;;13.93;;
3249;SDS011;1637;42.020;23.992;2022-11-18T04:51:36;33.87;;;17.40;;
3249;SDS011;1637;42.020;23.992;2022-11-18T04:54:03;42.27;;;13.93;;
3249;SDS011;1637;42.020;23.992;2022-11-18T04:56:31;28.33;;;12.13;;
3249;SDS011;1637;42.020;23.992;2022-11-18T04:58:57;57.27;;;16.60;;
3249;SDS011;1637;42.020;23.992;2022-11-18T05:01:25;70.90;;;20.43;;
3249;SDS011;1637;42.020;23.992;2022-11-18T05:03:52;57.57;;;18.70;;
3249;SDS011;1637;42.020;23.992;2022-11-18T05:06:20;53.33;;;19.27;;
3249;SDS011;1637;42.020;23.992;2022-11-18T05:08:47;53.70;;;22.53;;
3249;SDS011;1637;42.020;23.992;2022-11-18T05:11:14;82.87;;;25.20;;
3249;SDS011;1637;42.020;23.992;2022-11-18T05:13:58;71.23;;;27.17;;
3249;SDS011;1637;42.020;23.992;2022-11-18T05:16:25;43.93;;;22.77;;
3249;SDS011;1637;42.020;23.992;2022-11-18T05:18:52;48.00;;;24.97;;
3249;SDS011;1637;42.020;23.992;2022-11-18T05:21:20;52.77;;;24.50;;
3249;SDS011;1637;42.020;23.992;2022-11-18T05:23:47;116.67;;;40.17;;
3249;SDS011;1637;42.020;23.992;2022-11-18T05:26:14;93.63;;;35.90;;
3249;SDS011;1637;42.020;23.992;2022-11-18T05:28:41;110.10;;;39.87;;
3249;SDS011;1637;42.020;23.992;2022-11-18T05:31:08;91.07;;;33.67;;
3249;SDS011;1637;42.020;23.992;2022-11-18T05:33:35;68.13;;;25.73;;
3249;SDS011;1637;42.020;23.992;2022-11-18T05:36:03;46.50;;;23.00;;
3249;SDS011;1637;42.020;23.992;2022-11-18T05:38:32;46.97;;;21.93;;
3249;SDS011;1637;42.020;23.992;2022-11-18T05:40:59;37.50;;;19.97;;
3249;SDS011;1637;42.020;23.992;2022-11-18T05:43:26;57.57;;;21.30;;
3249;SDS011;1637;42.020;23.992;2022-11-18T05:45:52;63.93;;;24.40;;
3249;SDS011;1637;42.020;23.992;2022-11-18T05:48:18;292.63;;;100.20;;
3249;SDS011;1637;42.020;23.992;2022-11-18T05:50:46;226.67;;;79.10;;
3249;SDS011;1637;42.020;23.992;2022-11-18T05:53:14;105.33;;;46.10;;
3249;SDS011;1637;42.020;23.992;2022-11-18T05:55:45;99.73;;;52.80;;
3249;SDS011;1637;42.020;23.992;2022-11-18T05:58:18;67.87;;;28.27;;
3249;SDS011;1637;42.020;23.992;2022-11-18T06:00:45;55.80;;;20.87;;
3249;SDS011;1637;42.020;23.992;2022-11-18T06:03:16;49.13;;;20.27;;
3249;SDS011;1637;42.020;23.992;2022-11-18T06:05:46;87.37;;;35.03;;
3249;SDS011;1637;42.020;23.992;2022-11-18T06:08:13;84.80;;;42.43;;
3249;SDS011;1637;42.020;23.992;2022-11-18T06:10:44;165.73;;;67.73;;
3249;SDS011;1637;42.020;23.992;2022-11-18T06:13:14;77.33;;;30.90;;
3249;SDS011;1637;42.020;23.992;2022-11-18T06:15:45;117.37;;;36.37;;
3249;SDS011;1637;42.020;23.992;2022-11-18T06:18:16;112.43;;;34.17;;
3249;SDS011;1637;42.020;23.992;2022-11-18T06:20:44;157.57;;;50.37;;
3249;SDS011;1637;42.020;23.992;2022-11-18T06:23:12;118.70;;;44.03;;
3249;SDS011;1637;42.020;23.992;2022-11-18T06:25:39;131.00;;;48.97;;
3249;SDS011;1637;42.020;23.992;2022-11-18T06:28:08;114.27;;;37.90;;
3249;SDS011;1637;42.020;23.992;2022-11-18T06:30:37;68.43;;;25.83;;
3249;SDS011;1637;42.020;23.992;2022-11-18T06:33:04;117.97;;;35.20;;
3249;SDS011;1637;42.020;23.992;2022-11-18T06:35:33;161.30;;;57.30;;
3249;SDS011;1637;42.020;23.992;2022-11-18T06:38:00;164.00;;;41.00;;
3249;SDS011;1637;42.020;23.992;2022-11-18T06:40:27;162.37;;;51.30;;
3249;SDS011;1637;42.020;23.992;2022-11-18T06:42:53;186.87;;;49.90;;
3249;SDS011;1637;42.020;23.992;2022-11-18T06:45:39;136.90;;;41.07;;
3249;SDS011;1637;42.020;23.992;2022-11-18T06:48:26;153.67;;;45.40;;
3249;SDS011;1637;42.020;23.992;2022-11-18T06:50:52;101.20;;;34.43;;
3249;SDS011;1637;42.020;23.992;2022-11-18T06:53:18;92.93;;;34.73;;
3249;SDS011;1637;42.020;23.992;2022-11-18T06:55:45;97.87;;;39.27;;
3249;SDS011;1637;42.020;23.992;2022-11-18T06:58:12;119.73;;;49.47;;
3249;SDS011;1637;42.020;23.992;2022-11-18T07:00:40;163.53;;;52.83;;
3249;SDS011;1637;42.020;23.992;2022-11-18T07:03:07;110.50;;;45.30;;
3249;SDS011;1637;42.020;23.992;2022-11-18T07:05:34;91.30;;;38.33;;
3249;SDS011;1637;42.020;23.992;2022-11-18T07:08:01;73.33;;;29.90;;
3249;SDS011;1637;42.020;23.992;2022-11-18T07:10:28;170.10;;;79.57;;
3249;SDS011;1637;42.020;23.992;2022-11-18T07:12:54;103.37;;;48.00;;
3249;SDS011;1637;42.020;23.992;2022-11-18T07:15:21;137.13;;;65.90;;
3249;SDS011;1637;42.020;23.992;2022-11-18T07:17:49;66.73;;;38.87;;
3249;SDS011;1637;42.020;23.992;2022-11-18T07:20:16;97.23;;;49.80;;
3249;SDS011;1637;42.020;23.992;2022-11-18T07:22:43;84.93;;;43.40;;
3249;SDS011;1637;42.020;23.992;2022-11-18T07:25:10;86.23;;;47.87;;
3249;SDS011;1637;42.020;23.992;2022-11-18T07:27:37;85.07;;;45.63;;
3249;SDS011;1637;42.020;23.992;2022-11-18T07:30:04;70.13;;;39.80;;
3249;SDS011;1637;42.020;23.992;2022-11-18T07:32:31;65.20;;;37.57;;
3249;SDS011;1637;42.020;23.992;2022-11-18T07:35:00;93.40;;;51.07;;
3249;SDS011;1637;42.020;23.992;2022-11-18T07:37:26;68.43;;;41.93;;
3249;SDS011;1637;42.020;23.992;2022-11-18T07:39:53;26.90;;;18.83;;
3249;SDS011;1637;42.020;23.992;2022-11-18T07:42:20;18.13;;;12.90;;
3249;SDS011;1637;42.020;23.992;2022-11-18T07:44:47;31.57;;;18.27;;
3249;SDS011;1637;42.020;23.992;2022-11-18T07:47:14;32.53;;;20.30;;
3249;SDS011;1637;42.020;23.992;2022-11-18T07:49:41;38.23;;;22.23;;
3249;SDS011;1637;42.020;23.992;2022-11-18T07:52:09;40.17;;;24.27;;
3249;SDS011;1637;42.020;23.992;2022-11-18T07:54:36;54.47;;;32.60;;
3249;SDS011;1637;42.020;23.992;2022-11-18T07:57:02;40.83;;;26.03;;
3249;SDS011;1637;42.020;23.992;2022-11-18T07:59:29;48.40;;;28.63;;
3249;SDS011;1637;42.020;23.992;2022-11-18T08:01:56;40.37;;;26.17;;
3249;SDS011;1637;42.020;23.992;2022-11-18T08:04:24;38.63;;;28.00;;
3249;SDS011;1637;42.020;23.992;2022-11-18T08:06:50;51.17;;;35.67;;
3249;SDS011;1637;42.020;23.992;2022-11-18T08:09:19;73.30;;;34.53;;
3249;SDS011;1637;42.020;23.992;2022-11-18T08:11:45;60.20;;;38.10;;
3249;SDS011;1637;42.020;23.992;2022-11-18T08:14:12;76.47;;;45.77;;
3249;SDS011;1637;42.020;23.992;2022-11-18T08:16:39;90.43;;;45.50;;
3249;SDS011;1637;42.020;23.992;2022-11-18T08:19:06;66.50;;;36.93;;
3249;SDS011;1637;42.020;23.992;2022-11-18T08:21:33;61.90;;;32.50;;
3249;SDS011;1637;42.020;23.992;2022-11-18T08:23:59;51.00;;;28.97;;
3249;SDS011;1637;42.020;23.992;2022-11-18T08:26:27;79.40;;;42.17;;
3249;SDS011;1637;42.020;23.992;2022-11-18T08:28:55;43.93;;;32.20;;
3249;SDS011;1637;42.020;23.992;2022-11-18T08:31:23;65.67;;;31.60;;
3249;SDS011;1637;42.020;23.992;2022-11-18T08:33:53;54.07;;;27.87;;
3249;SDS011;1637;42.020;23.992;2022-11-18T08:36:21;80.90;;;42.83;;
3249;SDS011;1637;42.020;23.992;2022-11-18T08:38:50;117.03;;;44.53;;
3249;SDS011;1637;42.020;23.992;2022-11-18T08:43:51;109.43;;;41.33;;
3249;SDS011;1637;42.020;23.992;2022-11-18T08:46:18;99.93;;;41.10;;
3249;SDS011;1637;42.020;23.992;2022-11-18T08:48:45;60.03;;;32.20;;
3249;SDS011;1637;42.020;23.992;2022-11-18T08:51:12;63.83;;;33.67;;
3249;SDS011;1637;42.020;23.992;2022-11-18T08:53:39;74.97;;;41.33;;
3249;SDS011;1637;42.020;23.992;2022-11-18T08:56:10;155.93;;;47.40;;
3249;SDS011;1637;42.020;23.992;2022-11-18T08:58:39;62.53;;;31.73;;
3249;SDS011;1637;42.020;23.992;2022-11-18T09:01:08;71.80;;;34.23;;
3249;SDS011;1637;42.020;23.992;2022-11-18T09:03:35;173.83;;;80.37;;
3249;SDS011;1637;42.020;23.992;2022-11-18T09:06:06;70.63;;;32.20;;
3249;SDS011;1637;42.020;23.992;2022-11-18T09:08:34;91.70;;;38.13;;
3249;SDS011;1637;42.020;23.992;2022-11-18T09:11:03;120.30;;;43.90;;
3249;SDS011;1637;42.020;23.992;2022-11-18T09:13:31;141.33;;;52.17;;
3249;SDS011;1637;42.020;23.992;2022-11-18T09:15:57;160.23;;;76.87;;
3249;SDS011;1637;42.020;23.992;2022-11-18T09:18:26;298.90;;;122.50;;
3249;SDS011;1637;42.020;23.992;2022-11-18T09:20:53;107.60;;;47.10;;
3249;SDS011;1637;42.020;23.992;2022-11-18T09:23:21;85.20;;;47.17;;
3249;SDS011;1637;42.020;23.992;2022-11-18T09:25:47;73.40;;;42.87;;
3249;SDS011;1637;42.020;23.992;2022-11-18T09:28:14;43.93;;;24.87;;
3249;SDS011;1637;42.020;23.992;2022-11-18T09:30:41;49.97;;;26.17;;
3249;SDS011;1637;42.020;23.992;2022-11-18T09:33:08;27.27;;;16.03;;
3249;SDS011;1637;42.020;23.992;2022-11-18T09:35:40;16.83;;;9.57;;
3249;SDS011;1637;42.020;23.992;2022-11-18T09:38:07;8.53;;;3.00;;
3249;SDS011;1637;42.020;23.992;2022-11-18T09:40:34;11.27;;;2.40;;
3249;SDS011;1637;42.020;23.992;2022-11-18T09:43:09;3.33;;;2.10;;
3249;SDS011;1637;42.020;23.992;2022-11-18T09:45:44;5.40;;;1.70;;
3249;SDS011;1637;42.020;23.992;2022-11-18T09:48:18;4.43;;;2.03;;
3249;SDS011;1637;42.020;23.992;2022-11-18T09:51:09;3.70;;;1.90;;
3249;SDS011;1637;42.020;23.992;2022-11-18T09:53:37;3.03;;;1.40;;
3249;SDS011;1637;42.020;23.992;2022-11-18T09:56:07;3.13;;;1.77;;
3249;SDS011;1637;42.020;23.992;2022-11-18T09:58:39;3.63;;;1.50;;
3249;SDS011;1637;42.020;23.992;2022-11-18T10:01:08;4.17;;;1.80;;
3249;SDS011;1637;42.020;23.992;2022-11-18T10:03:38;1.60;;;1.30;;
3249;SDS011;1637;42.020;23.992;2022-11-18T10:06:12;2.67;;;1.70;;
3249;SDS011;1637;42.020;23.992;2022-11-18T10:08:49;2.93;;;1.43;;
3249;SDS011;1637;42.020;23.992;2022-11-18T10:11:25;5.40;;;1.90;;
3249;SDS011;1637;42.020;23.992;2022-11-18T10:13:59;2.20;;;1.50;;
3249;SDS011;1637;42.020;23.992;2022-11-18T10:16:37;11.60;;;2.10;;
3249;SDS011;1637;42.020;23.992;2022-11-18T10:19:12;9.00;;;2.00;;
3249;SDS011;1637;42.020;23.992;2022-11-18T10:21:54;3.07;;;1.53;;
3249;SDS011;1637;42.020;23.992;2022-11-18T10:24:32;8.17;;;2.00;;
3249;SDS011;1637;42.020;23.992;2022-11-18T10:27:07;2.40;;;1.90;;
3249;SDS011;1637;42.020;23.992;2022-11-18T10:29:35;8.83;;;1.50;;
3249;SDS011;1637;42.020;23.992;2022-11-18T10:32:03;12.03;;;2.20;;
3249;SDS011;1637;42.020;23.992;2022-11-18T10:34:31;8.57;;;1.83;;
3249;SDS011;1637;42.020;23.992;2022-11-18T10:37:01;7.57;;;2.07;;
3249;SDS011;1637;42.020;23.992;2022-11-18T10:39:30;19.67;;;3.33;;
3249;SDS011;1637;42.020;23.992;2022-11-18T10:42:00;3.00;;;1.40;;
3249;SDS011;1637;42.020;23.992;2022-11-18T10:44:30;3.97;;;1.20;;
3249;SDS011;1637;42.020;23.992;2022-11-18T10:49:49;3.00;;;1.97;;
3249;SDS011;1637;42.020;23.992;2022-11-18T10:52:17;14.07;;;1.90;;
3249;SDS011;1637;42.020;23.992;2022-11-18T10:54:45;13.00;;;1.73;;
3249;SDS011;1637;42.020;23.992;2022-11-18T10:57:32;3.20;;;1.37;;
3249;SDS011;1637;42.020;23.992;2022-11-18T11:00:03;2.83;;;2.00;;
3249;SDS011;1637;42.020;23.992;2022-11-18T11:02:33;8.67;;;1.70;;
3249;SDS011;1637;42.020;23.992;2022-11-18T11:05:14;4.63;;;1.30;;
3249;SDS011;1637;42.020;23.992;2022-11-18T11:07:45;2.77;;;1.50;;
3249;SDS011;1637;42.020;23.992;2022-11-18T11:10:27;3.03;;;1.70;;
3249;SDS011;1637;42.020;23.992;2022-11-18T11:12:55;10.30;;;2.20;;
3249;SDS011;1637;42.020;23.992;2022-11-18T11:15:26;6.73;;;1.30;;
3249;SDS011;1637;42.020;23.992;2022-11-18T11:18:00;4.23;;;1.93;;
3249;SDS011;1637;42.020;23.992;2022-11-18T11:20:49;5.03;;;1.80;;
3249;SDS011;1637;42.020;23.992;2022-11-18T11:23:18;4.57;;;1.90;;
3249;SDS011;1637;42.020;23.992;2022-11-18T11:25:46;5.13;;;1.33;;
3249;SDS011;1637;42.020;23.992;2022-11-18T11:28:21;3.67;;;1.67;;
3249;SDS011;1637;42.020;23.992;2022-11-18T11:30:57;3.53;;;2.33;;
3249;SDS011;1637;42.020;23.992;2022-11-18T11:33:35;5.57;;;1.83;;
3249;SDS011;1637;42.020;23.992;2022-11-18T11:36:10;1.67;;;1.10;;
3249;SDS011;1637;42.020;23.992;2022-11-18T11:38:54;4.80;;;1.60;;
3249;SDS011;1637;42.020;23.992;2022-11-18T11:41:27;4.37;;;1.73;;
3249;SDS011;1637;42.020;23.992;2022-11-18T11:44:03;7.13;;;1.40;;
3249;SDS011;1637;42.020;23.992;2022-11-18T11:46:43;7.80;;;1.67;;
3249;SDS011;1637;42.020;23.992;2022-11-18T11:49:37;4.13;;;1.33;;
3249;SDS011;1637;42.020;23.992;2022-11-18T11:52:16;4.13;;;2.07;;
3249;SDS011;1637;42.020;23.992;2022-11-18T11:54:54;5.07;;;1.97;;
3249;SDS011;1637;42.020;23.992;2022-11-18T11:57:32;6.83;;;1.27;;
3249;SDS011;1637;42.020;23.992;2022-11-18T12:00:08;3.20;;;1.50;;
3249;SDS011;1637;42.020;23.992;2022-11-18T12:02:45;4.57;;;2.03;;
3249;SDS011;1637;42.020;23.992;2022-11-18T12:05:28;4.37;;;2.43;;
3249;SDS011;1637;42.020;23.992;2022-11-18T12:07:59;4.30;;;1.83;;
3249;SDS011;1637;42.020;23.992;2022-11-18T12:10:31;10.77;;;3.60;;
3249;SDS011;1637;42.020;23.992;2022-11-18T12:18:51;5.50;;;2.10;;
3249;SDS011;1637;42.020;23.992;2022-11-18T12:24:28;7.30;;;3.97;;
3249;SDS011;1637;42.020;23.992;2022-11-18T12:27:02;4.30;;;2.47;;
3249;SDS011;1637;42.020;23.992;2022-11-18T12:29:39;15.83;;;7.50;;
3249;SDS011;1637;42.020;23.992;2022-11-18T12:32:15;5.07;;;3.17;;
3249;SDS011;1637;42.020;23.992;2022-11-18T12:35:20;6.63;;;2.43;;
3249;SDS011;1637;42.020;23.992;2022-11-18T12:37:57;2.97;;;2.10;;
3249;SDS011;1637;42.020;23.992;2022-11-18T12:40:35;3.03;;;1.77;;
3249;SDS011;1637;42.020;23.992;2022-11-18T12:43:05;3.47;;;2.60;;
3249;SDS011;1637;42.020;23.992;2022-11-18T12:55:29;5.67;;;2.63;;
3249;SDS011;1637;42.020;23.992;2022-11-18T12:57:57;15.03;;;2.60;;
3249;SDS011;1637;42.020;23.992;2022-11-18T13:00:30;7.20;;;3.00;;
3249;SDS011;1637;42.020;23.992;2022-11-18T13:03:25;8.90;;;2.90;;
3249;SDS011;1637;42.020;23.992;2022-11-18T13:06:02;63.40;;;6.03;;
3249;SDS011;1637;42.020;23.992;2022-11-18T13:08:32;21.83;;;3.67;;
3249;SDS011;1637;42.020;23.992;2022-11-18T13:11:07;10.83;;;4.67;;
3249;SDS011;1637;42.020;23.992;2022-11-18T13:13:56;13.23;;;4.00;;
3249;SDS011;1637;42.020;23.992;2022-11-18T13:16:43;14.93;;;5.20;;
3249;SDS011;1637;42.020;23.992;2022-11-18T13:19:27;12.33;;;4.60;;
3249;SDS011;1637;42.020;23.992;2022-11-18T13:21:54;11.40;;;5.27;;
3249;SDS011;1637;42.020;23.992;2022-11-18T13:24:43;13.00;;;6.13;;
3249;SDS011;1637;42.020;23.992;2022-11-18T13:27:14;24.50;;;8.87;;
3249;SDS011;1637;42.020;23.992;2022-11-18T13:29:47;14.07;;;6.43;;
3249;SDS011;1637;42.020;23.992;2022-11-18T13:32:22;7.53;;;3.53;;
3249;SDS011;1637;42.020;23.992;2022-11-18T13:34:51;8.53;;;4.20;;
3249;SDS011;1637;42.020;23.992;2022-11-18T13:37:21;12.00;;;3.77;;
3249;SDS011;1637;42.020;23.992;2022-11-18T13:39:49;12.03;;;6.60;;
3249;SDS011;1637;42.020;23.992;2022-11-18T13:42:18;21.50;;;6.17;;
3249;SDS011;1637;42.020;23.992;2022-11-18T13:44:50;16.40;;;7.50;;
3249;SDS011;1637;42.020;23.992;2022-11-18T13:47:30;27.23;;;9.53;;
3249;SDS011;1637;42.020;23.992;2022-11-18T13:50:05;16.77;;;7.33;;
3249;SDS011;1637;42.020;23.992;2022-11-18T13:52:41;19.10;;;8.17;;
3249;SDS011;1637;42.020;23.992;2022-11-18T13:55:13;13.13;;;7.50;;
3249;SDS011;1637;42.020;23.992;2022-11-18T13:57:47;22.53;;;8.53;;
3249;SDS011;1637;42.020;23.992;2022-11-18T14:00:20;46.93;;;17.97;;
3249;SDS011;1637;42.020;23.992;2022-11-18T14:02:53;31.13;;;10.70;;
3249;SDS011;1637;42.020;23.992;2022-11-18T14:05:22;22.30;;;11.80;;
3249;SDS011;1637;42.020;23.992;2022-11-18T14:07:54;30.03;;;14.27;;
3249;SDS011;1637;42.020;23.992;2022-11-18T14:10:32;18.93;;;9.87;;
3249;SDS011;1637;42.020;23.992;2022-11-18T14:13:17;17.47;;;10.37;;
3249;SDS011;1637;42.020;23.992;2022-11-18T14:15:48;32.10;;;12.90;;
3249;SDS011;1637;42.020;23.992;2022-11-18T14:18:18;33.50;;;19.90;;
3249;SDS011;1637;42.020;23.992;2022-11-18T14:20:54;15.53;;;9.70;;
3249;SDS011;1637;42.020;23.992;2022-11-18T14:23:24;20.70;;;12.90;;
3249;SDS011;1637;42.020;23.992;2022-11-18T14:25:53;26.20;;;12.63;;
3249;SDS011;1637;42.020;23.992;2022-11-18T14:28:21;34.47;;;16.23;;
3249;SDS011;1637;42.020;23.992;2022-11-18T14:30:55;38.13;;;10.77;;
3249;SDS011;1637;42.020;23.992;2022-11-18T14:33:25;42.83;;;17.47;;
3249;SDS011;1637;42.020;23.992;2022-11-18T14:35:53;45.70;;;9.50;;
3249;SDS011;1637;42.020;23.992;2022-11-18T14:38:23;11.47;;;5.43;;
3249;SDS011;1637;42.020;23.992;2022-11-18T14:40:55;21.50;;;8.57;;
3249;SDS011;1637;42.020;23.992;2022-11-18T14:43:23;27.67;;;9.50;;
3249;SDS011;1637;42.020;23.992;2022-11-18T14:45:51;10.77;;;6.97;;
3249;SDS011;1637;42.020;23.992;2022-11-18T14:48:20;12.70;;;9.50;;
3249;SDS011;1637;42.020;23.992;2022-11-18T14:50:49;25.07;;;9.03;;
3249;SDS011;1637;42.020;23.992;2022-11-18T14:53:16;31.93;;;16.37;;
3249;SDS011;1637;42.020;23.992;2022-11-18T14:55:44;20.20;;;11.37;;
3249;SDS011;1637;42.020;23.992;2022-11-18T14:58:12;45.43;;;16.40;;
3249;SDS011;1637;42.020;23.992;2022-11-18T15:00:40;32.83;;;15.13;;
3249;SDS011;1637;42.020;23.992;2022-11-18T15:03:08;41.50;;;16.07;;
3249;SDS011;1637;42.020;23.992;2022-11-18T15:05:35;55.63;;;24.47;;
3249;SDS011;1637;42.020;23.992;2022-11-18T15:08:03;10.70;;;6.20;;
3249;SDS011;1637;42.020;23.992;2022-11-18T15:10:30;20.23;;;9.33;;
3249;SDS011;1637;42.020;23.992;2022-11-18T15:12:57;35.97;;;12.57;;
3249;SDS011;1637;42.020;23.992;2022-11-18T15:15:24;9.97;;;5.63;;
3249;SDS011;1637;42.020;23.992;2022-11-18T15:17:51;11.50;;;6.70;;
3249;SDS011;1637;42.020;23.992;2022-11-18T15:20:19;21.90;;;7.10;;
3249;SDS011;1637;42.020;23.992;2022-11-18T15:22:47;51.60;;;10.00;;
3249;SDS011;1637;42.020;23.992;2022-11-18T15:25:15;26.13;;;8.50;;
3249;SDS011;1637;42.020;23.992;2022-11-18T15:27:42;18.83;;;7.70;;